^^
Station Historical Data
Daily Summary for February 27, 2017 Units:  Metric    English   Both
« Previous Day
Next Day »
Daily Weekly Monthly Yearly Custom
  High: Low: Average:
Temperature: 37.5 °C 17.4 °C 27.6 °C
Dew Point: 2.6 °C -3.1 °C 0.6 °C
Humidity: 35% 9% 19%
Wind Speed: 20.9km/h 0km/h 3.5km/h
Wind Gust: 29km/h - -
Wind- - West
Pressure: 1007.7 hPa 1001.9 hPa -
Precipitation: 0 mm    
Historical Graphs
 
 
Tabular Data for February 27, 2017
Time Temperature Dew Point Pressure Wind Wind Speed Wind Gust Humidity Rainfall Rate (Hourly) solar Conditions
00:40 25.6 °C -3 °C 1007.7 hPa Calm     15% 0 mm 0.0 W/m2
00:45 25.4 °C -3.1 °C 1007.7 hPa Calm     15% 0 mm 0.0 W/m2
00:50 25.2 °C -2.4 °C 1007.7 hPa Calm     16% 0 mm 0.0 W/m2
00:55 25.2 °C -2.4 °C 1007.7 hPa Calm     16% 0 mm 0.0 W/m2
01:01 25 °C -1.8 °C 1007.3 hPa Calm     17% 0 mm 0.0 W/m2
01:11 24.7 °C -1.2 °C 1007.3 hPa Calm     18% 0 mm 0.0 W/m2
01:16 24 °C -1.8 °C 1007.3 hPa Calm     18% 0 mm 0.0 W/m2
01:26 23.7 °C -1.3 °C 1007.3 hPa Calm     19% 0 mm 0.0 W/m2
01:31 23.3 °C -0.9 °C 1007.3 hPa Calm     20% 0 mm 0.0 W/m2
01:37 22.9 °C -0.6 °C 1007.3 hPa Calm     21% 0 mm 0.0 W/m2
01:42 22.7 °C -0.1 °C 1007.7 hPa Calm     22% 0 mm 0.0 W/m2
01:47 22.4 °C -0.4 °C 1007.7 hPa Calm     22% 0 mm 0.0 W/m2
01:52 22.2 °C -0.5 °C 1007.7 hPa Calm     22% 0 mm 0.0 W/m2
01:57 22 °C -0.7 °C 1007.3 hPa Calm     22% 0 mm 0.0 W/m2
02:02 21.8 °C -0.9 °C 1007.3 hPa Calm     22% 0 mm 0.0 W/m2
02:13 21.7 °C -0.3 °C 1007.3 hPa Calm     23% 0 mm 0.0 W/m2
02:34 21.3 °C 0.5 °C 1007 hPa Calm     25% 0 mm 0.0 W/m2
02:50 20.9 °C 0.1 °C 1007 hPa Calm     25% 0 mm 0.0 W/m2
02:55 20.8 °C 0 °C 1007 hPa Calm     25% 0 mm 0.0 W/m2
03:00 20.6 °C -0.1 °C 1006.7 hPa Calm     25% 0 mm 0.0 W/m2
03:05 20.3 °C 0.2 °C 1006.7 hPa Calm     26% 0 mm 0.0 W/m2
03:10 20.2 °C 0.1 °C 1006.7 hPa Calm     26% 0 mm 0.0 W/m2
03:21 19.9 °C 0.8 °C 1006.7 hPa Calm     28% 0 mm 0.0 W/m2
03:26 19.9 °C 0.8 °C 1006.3 hPa Calm     28% 0 mm 0.0 W/m2
03:31 20 °C 0.9 °C 1006.3 hPa Calm     28% 0 mm 0.0 W/m2
03:36 20.1 °C 1 °C 1006.3 hPa Calm     28% 0 mm 0.0 W/m2
03:40 20.2 °C 1.1 °C 1006.3 hPa Calm     28% 0 mm 0.0 W/m2
03:46 20.2 °C 1.1 °C 1006.3 hPa Calm     28% 0 mm 0.0 W/m2
04:07 19.8 °C 0.8 °C 1006.3 hPa Calm     28% 0 mm 0.0 W/m2
04:12 19.7 °C 1.2 °C 1006.3 hPa Calm     29% 0 mm 0.0 W/m2
04:17 19.6 °C 1.5 °C 1006.3 hPa Calm     30% 0 mm 0.0 W/m2
04:27 19.4 °C 0.9 °C 1006.3 hPa Calm     29% 0 mm 0.0 W/m2
04:42 19.1 °C 1.6 °C 1006 hPa Calm     31% 0 mm 0.0 W/m2
04:58 18.7 °C 1.7 °C 1006.3 hPa Calm     32% 0 mm 0.0 W/m2
05:03 18.7 °C 1.7 °C 1006.3 hPa Calm     32% 0 mm 0.0 W/m2
05:08 18.6 °C 0.7 °C 1006.3 hPa Calm     30% 0 mm 0.0 W/m2
05:18 18.6 °C 1.6 °C 1006.3 hPa Calm     32% 0 mm 0.0 W/m2
05:24 18.4 °C 1.4 °C 1006.3 hPa Calm     32% 0 mm 0.0 W/m2
05:29 18.2 °C 1.7 °C 1006.3 hPa Calm     33% 0 mm 0.0 W/m2
05:34 18 °C 1.5 °C 1006 hPa Calm     33% 0 mm 0.0 W/m2
05:40 17.8 °C 1.7 °C 1006.3 hPa Calm     34% 0 mm 0.0 W/m2
05:45 17.7 °C 2 °C 1006.3 hPa Calm     35% 0 mm 0.0 W/m2
05:51 17.6 °C 2 °C 1006 hPa Calm     35% 0 mm 0.0 W/m2
05:56 17.4 °C 1.8 °C 1006.3 hPa Calm     35% 0 mm 0.0 W/m2
06:07 17.4 °C 1.4 °C 1006.3 hPa Calm     34% 0 mm 0.0 W/m2
06:18 17.7 °C 1.6 °C 1006.3 hPa Calm     34% 0 mm 0.0 W/m2
06:28 17.9 °C 1.4 °C 1006.3 hPa Calm     33% 0 mm 0.0 W/m2
06:38 17.9 °C 1.4 °C 1006.3 hPa Calm     33% 0 mm 0.0 W/m2
06:43 17.8 °C 1.3 °C 1006.3 hPa Calm     33% 0 mm 5.0 W/m2
06:48 17.7 °C 1.2 °C 1006.3 hPa Calm     33% 0 mm 7.0 W/m2
06:53 17.7 °C 1.2 °C 1006.7 hPa Calm     33% 0 mm 12.0 W/m2
06:58 17.7 °C 1.2 °C 1006.7 hPa Calm     33% 0 mm 16.0 W/m2
07:02 17.9 °C 1 °C 1006.7 hPa Calm     32% 0 mm 23.0 W/m2
07:09 18.2 °C 1.2 °C 1006.7 hPa Calm     32% 0 mm 35.0 W/m2
07:38 20 °C 1.4 °C 1007 hPa Calm     29% 0 mm 149.0 W/m2
07:55 20.8 °C 1.1 °C 1007 hPa Calm     27% 0 mm 199.0 W/m2
08:04 22.1 °C 1.7 °C 1007.3 hPa Calm     26% 0 mm 262.0 W/m2
08:22 23 °C 0.1 °C 1007.3 hPa Calm     22% 0 mm 301.0 W/m2
08:30 25.1 °C -0.1 °C 1007 hPa Calm     19% 0 mm 359.0 W/m2
08:36 25.6 °C 0.3 °C 1007 hPa Calm     19% 0 mm 376.0 W/m2
08:42 26.2 °C 0 °C 1007 hPa Calm     18% 0 mm 396.0 W/m2
08:44 26.9 °C -0.2 °C 1007 hPa Calm     17% 0 mm 415.0 W/m2
08:49 27.5 °C 0.3 °C 1007 hPa South 1.4 km/h 3.2 km/h 17% 0 mm 427.0 W/m2
09:00 28.1 °C -0.1 °C 1007 hPa Calm   4.8 km/h 16% 0 mm 461.0 W/m2
09:10 29.1 °C -1.1 °C 1007 hPa Calm     14% 0 mm 497.0 W/m2
09:20 29.6 °C -1.7 °C 1007 hPa Calm     13% 0 mm 517.0 W/m2
09:26 30.1 °C -1.3 °C 1007 hPa Calm     13% 0 mm 550.0 W/m2
09:33 30.3 °C -0.2 °C 1007 hPa Calm   3.2 km/h 14% 0 mm 570.0 W/m2
09:36 30.6 °C -1 °C 1007 hPa Calm     13% 0 mm 587.0 W/m2
10:38 31.2 °C -1.6 °C 1007.3 hPa West 3.2 km/h 16.1 km/h 12% 0 mm 759.0 W/m2
10:41 31.2 °C -0.5 °C 1007 hPa West 7.9 km/h 12.9 km/h 13% 0 mm 772.0 W/m2
10:54 31.4 °C -0.3 °C 1007 hPa West 13 km/h 16.1 km/h 13% 0 mm 780.0 W/m2
11:13 32.6 °C -0.5 °C 1006.7 hPa WNW 11.1 km/h 19.3 km/h 12% 0 mm 835.0 W/m2
11:20 32.7 °C -0.4 °C 1006.7 hPa WNW 6.4 km/h 17.7 km/h 12% 0 mm 849.0 W/m2
11:22 32.9 °C -0.3 °C 1006.3 hPa WNW 6.4 km/h 16.1 km/h 12% 0 mm 856.0 W/m2
11:30 33 °C -0.2 °C 1006.3 hPa NW 7.9 km/h 19.3 km/h 12% 0 mm 865.0 W/m2
12:01 33.8 °C 0.4 °C 1006 hPa NW 9.7 km/h 14.5 km/h 12% 0 mm 907.0 W/m2
12:07 34.1 °C 0.7 °C 1006 hPa NNW 6.4 km/h 19.3 km/h 12% 0 mm 918.0 W/m2
12:17 34.3 °C 0.8 °C 1006 hPa NNW 11.1 km/h 17.7 km/h 12% 0 mm 921.0 W/m2
12:27 34.5 °C 1 °C 1005.6 hPa NNW 3.2 km/h 14.5 km/h 12% 0 mm 932.0 W/m2
12:33 34.8 °C 1.2 °C 1005.6 hPa Calm   12.9 km/h 12% 0 mm 935.0 W/m2
12:58 35.1 °C 0.2 °C 1005.3 hPa Calm   9.7 km/h 11% 0 mm 940.0 W/m2
13:10 35.4 °C 0.5 °C 1005.3 hPa NNW 11.1 km/h 14.5 km/h 11% 0 mm 942.0 W/m2
13:22 35.4 °C 0.5 °C 1005 hPa Calm   14.5 km/h 11% 0 mm 939.0 W/m2
13:28 35.9 °C 0.8 °C 1004.6 hPa NW 1.4 km/h 11.3 km/h 11% 0 mm 935.0 W/m2
13:35 36.3 °C 1.1 °C 1005 hPa Calm   11.3 km/h 11% 0 mm 935.0 W/m2
13:41 36.2 °C 1.1 °C 1004.6 hPa NW 3.2 km/h 11.3 km/h 11% 0 mm 930.0 W/m2
13:46 36.2 °C -0.3 °C 1004.6 hPa Calm   3.2 km/h 10% 0 mm 925.0 W/m2
13:51 36.2 °C -0.3 °C 1004.6 hPa Calm   3.2 km/h 10% 0 mm 919.0 W/m2
13:53 36.2 °C -0.3 °C 1004.3 hPa Calm     10% 0 mm 916.0 W/m2
13:58 36.3 °C 1.1 °C 1004.3 hPa Calm   16.1 km/h 11% 0 mm 912.0 W/m2
14:07 36.3 °C 1.1 °C 1004.3 hPa NW 20.9 km/h 29 km/h 11% 0 mm 905.0 W/m2
14:19 36.1 °C 1 °C 1004.3 hPa NW 11.1 km/h 17.7 km/h 11% 0 mm 891.0 W/m2
14:23 36.3 °C -0.2 °C 1004.3 hPa Calm   14.5 km/h 10% 0 mm 877.0 W/m2
14:39 36.4 °C -0.1 °C 1003.9 hPa Calm     10% 0 mm 856.0 W/m2
14:54 36.6 °C 0 °C 1003.9 hPa Calm   6.4 km/h 10% 0 mm 826.0 W/m2
15:16 36.8 °C 0.2 °C 1003.6 hPa Calm   6.4 km/h 10% 0 mm 795.0 W/m2
15:31 37 °C 0.4 °C 1003.3 hPa NW 1.4 km/h 20.9 km/h 10% 0 mm 756.0 W/m2
15:39 37.3 °C -0.9 °C 1002.9 hPa NNW 11.1 km/h 24.1 km/h 9% 0 mm 717.0 W/m2
15:57 37.1 °C 0.4 °C 1002.9 hPa Calm   20.9 km/h 10% 0 mm 686.0 W/m2
16:27 37.2 °C -0.9 °C 1002.6 hPa Calm   3.2 km/h 9% 0 mm 596.0 W/m2
16:42 37.5 °C -0.7 °C 1002.3 hPa Calm     9% 0 mm 543.0 W/m2
17:06 37.1 °C 0.4 °C 1002.3 hPa Calm     10% 0 mm 436.0 W/m2
17:21 37.3 °C -0.9 °C 1001.9 hPa Calm     9% 0 mm 385.0 W/m2
17:52 37.1 °C -1 °C 1001.9 hPa Calm   3.2 km/h 9% 0 mm 274.0 W/m2
18:02 36.9 °C 0.3 °C 1001.9 hPa NNW 9.7 km/h 9.7 km/h 10% 0 mm 234.0 W/m2
18:23 36.5 °C 0 °C 1001.9 hPa Calm     10% 0 mm 171.0 W/m2
18:31 36.6 °C 0 °C 1001.9 hPa NNW 6.4 km/h 6.4 km/h 10% 0 mm 120.0 W/m2
18:41 36.3 °C -0.2 °C 1001.9 hPa Calm     10% 0 mm 83.0 W/m2
18:46 36.3 °C -0.2 °C 1001.9 hPa Calm     10% 0 mm 63.0 W/m2
18:55 36.2 °C -0.3 °C 1001.9 hPa Calm     10% 0 mm 35.0 W/m2
21:03 30.8 °C 2.1 °C 1002.9 hPa Calm     16% 0 mm 0.0 W/m2
21:14 30.3 °C 0.8 °C 1002.9 hPa Calm     15% 0 mm 0.0 W/m2
21:27 30.6 °C 1.9 °C 1003.3 hPa WNW 17.7 km/h 24.1 km/h 16% 0 mm 0.0 W/m2
21:35 31.4 °C 2.6 °C 1003.6 hPa WNW 11.1 km/h 19.3 km/h 16% 0 mm 0.0 W/m2
21:44 31.4 °C 2.6 °C 1003.9 hPa West 13 km/h 16.1 km/h 16% 0 mm 0.0 W/m2
21:49 31.3 °C 2.5 °C 1003.9 hPa West 11.1 km/h 17.7 km/h 16% 0 mm 0.0 W/m2
21:59 31.1 °C 2.3 °C 1003.9 hPa West 17.7 km/h 19.3 km/h 16% 0 mm 0.0 W/m2
22:04 31.1 °C 2.3 °C 1003.9 hPa West 13 km/h 19.3 km/h 16% 0 mm 0.0 W/m2
22:10 31.1 °C 2.3 °C 1003.9 hPa WSW 14.3 km/h 22.5 km/h 16% 0 mm 0.0 W/m2
22:20 30.8 °C 2.1 °C 1004.3 hPa WSW 14.3 km/h 19.3 km/h 16% 0 mm 0.0 W/m2
22:25 30.7 °C 2 °C 1004.3 hPa WSW 11.1 km/h 16.1 km/h 16% 0 mm 0.0 W/m2
22:31 30.7 °C 2 °C 1004.3 hPa WSW 13 km/h 19.3 km/h 16% 0 mm 0.0 W/m2
22:37 30.6 °C 1.9 °C 1004.3 hPa WSW 9.7 km/h 16.1 km/h 16% 0 mm 0.0 W/m2
22:45 30.3 °C 1.7 °C 1004.3 hPa WSW 13 km/h 14.5 km/h 16% 0 mm 0.0 W/m2
22:55 30.2 °C 2.4 °C 1004.3 hPa WSW 13 km/h 19.3 km/h 17% 0 mm 0.0 W/m2
23:00 30.2 °C 2.4 °C 1004.6 hPa WSW 19.5 km/h 20.9 km/h 17% 0 mm 0.0 W/m2
23:05 30.1 °C 2.4 °C 1004.6 hPa WSW 13 km/h 19.3 km/h 17% 0 mm 0.0 W/m2
23:10 30 °C 2.3 °C 1004.6 hPa WSW 11.1 km/h 17.7 km/h 17% 0 mm 0.0 W/m2
23:15 29.9 °C 2.2 °C 1004.3 hPa WSW 16.3 km/h 19.3 km/h 17% 0 mm 0.0 W/m2
23:20 29.9 °C 2.2 °C 1004.3 hPa WSW 11.1 km/h 20.9 km/h 17% 0 mm 0.0 W/m2
23:25 29.8 °C 2.1 °C 1004.6 hPa WSW 16.3 km/h 17.7 km/h 17% 0 mm 0.0 W/m2
23:30 29.8 °C 2.1 °C 1004.6 hPa WSW 13 km/h 19.3 km/h 17% 0 mm 0.0 W/m2
23:35 29.8 °C 2.1 °C 1004.6 hPa WSW 17.7 km/h 17.7 km/h 17% 0 mm 0.0 W/m2
23:40 29.8 °C 2.1 °C 1004.6 hPa WSW 16.3 km/h 19.3 km/h 17% 0 mm 0.0 W/m2
23:45 29.8 °C 2.1 °C 1004.6 hPa WSW 13 km/h 17.7 km/h 17% 0 mm 0.0 W/m2
23:55 29.7 °C 2 °C 1004.6 hPa WSW 9.7 km/h 16.1 km/h 17% 0 mm 0.0 W/m2
Canyon Roadhouse, Fishriver Canyon, Namibia
Compliments of Weather Underground - 2.25 mb